Time;durP1;ratioP1;P1;durP2;ratioP2;P2;SDS_P1;SDS_P2;PMS_P1;PMS_P2;Temp;Humidity;BMP_temperature;BMP_pressure;BME280_temperature;BME280_humidity;BME280_pressure;Samples;Min_cycle;Max_cycle;Signal;HPM_P1;HPM_P2
2022/06/09 00:00:15;;;;;;;3.72;1.80;;;;;;;14.98;100.00;99746.16;6221127;28;20053;-92
2022/06/09 00:03:23;;;;;;;2.38;2.17;;;;;;;14.99;100.00;99745.19;6241371;28;20037;-91
2022/06/09 00:06:32;;;;;;;2.70;1.70;;;;;;;14.96;100.00;99742.94;6240541;28;20045;-92
2022/06/09 00:09:44;;;;;;;5.57;1.80;;;;;;;14.94;100.00;99748.31;6233759;28;20049;-91
2022/06/09 00:12:46;;;;;;;3.75;1.58;;;;;;;14.90;100.00;99748.81;6227051;28;20045;-91
2022/06/09 00:15:48;;;;;;;3.70;2.85;;;;;;;14.84;100.00;99751.09;6229015;28;20239;-91
2022/06/09 00:18:50;;;;;;;2.67;2.40;;;;;;;14.78;100.00;99753.56;6238160;28;20049;-91
2022/06/09 00:21:52;;;;;;;2.80;1.90;;;;;;;14.76;100.00;99758.94;6244839;28;20513;-92
2022/06/09 00:24:54;;;;;;;3.97;2.05;;;;;;;14.68;100.00;99761.56;6230824;28;20619;-91
2022/06/09 00:27:56;;;;;;;2.67;2.40;;;;;;;14.63;100.00;99762.09;6226525;28;20049;-91
2022/06/09 00:30:58;;;;;;;3.17;2.47;;;;;;;14.68;100.00;99768.56;6239086;28;20124;-90
2022/06/09 00:34:00;;;;;;;3.33;3.03;;;;;;;14.67;100.00;99769.56;6245821;28;20041;-90
2022/06/09 00:37:02;;;;;;;3.22;2.58;;;;;;;14.61;100.00;99768.44;6224342;28;20034;-90
2022/06/09 00:40:06;;;;;;;3.30;3.00;;;;;;;14.52;100.00;99769.38;6244615;28;20052;-90
2022/06/09 00:43:08;;;;;;;4.25;2.85;;;;;;;14.45;100.00;99774.44;6238576;28;20041;-90
2022/06/09 00:46:10;;;;;;;2.97;2.53;;;;;;;14.39;100.00;99775.91;6227386;28;20025;-90
2022/06/09 00:49:27;;;;;;;3.95;2.45;;;;;;;14.35;100.00;99781.59;6254468;28;20041;-90
2022/06/09 00:52:35;;;;;;;3.47;2.90;;;;;;;14.31;100.00;99780.31;6256800;28;20052;-90
2022/06/09 00:55:38;;;;;;;5.32;3.15;;;;;;;14.28;100.00;99773.63;6260509;28;20590;-90
2022/06/09 00:58:44;;;;;;;4.90;3.13;;;;;;;14.28;100.00;99778.03;6235750;28;20179;-90
2022/06/09 01:01:46;;;;;;;4.47;2.63;;;;;;;14.22;100.00;99774.28;6248216;28;20126;-89
2022/06/09 01:04:52;;;;;;;6.22;3.22;;;;;;;14.16;100.00;99777.53;6239307;28;20085;-90
2022/06/09 01:07:57;;;;;;;4.07;3.58;;;;;;;14.15;100.00;99781.13;6242441;28;20482;-90
2022/06/09 01:10:59;;;;;;;6.43;4.03;;;;;;;14.15;100.00;99779.34;6244464;28;20043;-89
2022/06/09 01:14:03;;;;;;;5.80;3.95;;;;;;;14.11;100.00;99787.63;6239392;28;20044;-90
2022/06/09 01:17:31;;;;;;;6.43;4.65;;;;;;;14.13;100.00;99780.47;6251052;28;20112;-90
2022/06/09 01:20:53;;;;;;;10.25;5.38;;;;;;;14.15;100.00;99786.34;6239577;28;20052;-89
2022/06/09 01:24:10;;;;;;;8.50;5.32;;;;;;;14.20;100.00;99797.06;6188040;28;20059;-89
2022/06/09 01:27:32;;;;;;;7.38;5.68;;;;;;;14.24;100.00;99792.38;6198645;28;20493;-90
2022/06/09 01:30:55;;;;;;;9.30;6.53;;;;;;;14.25;100.00;99778.38;6112667;29;20059;-90
2022/06/09 01:34:42;;;;;;;9.80;6.07;;;;;;;14.28;100.00;99786.66;6124092;29;20055;-89
2022/06/09 01:37:48;;;;;;;10.90;7.03;;;;;;;14.27;100.00;99790.25;6111965;29;20488;-89
2022/06/09 01:40:50;;;;;;;9.85;6.85;;;;;;;14.33;100.00;99794.78;6099024;29;20104;-89
2022/06/09 01:43:55;;;;;;;10.48;6.57;;;;;;;14.37;100.00;99792.69;6100104;29;20063;-89
2022/06/09 01:46:58;;;;;;;9.23;6.70;;;;;;;14.36;100.00;99797.06;6125778;29;20066;-89
2022/06/09 01:50:03;;;;;;;9.35;6.55;;;;;;;14.36;100.00;99796.25;6123461;29;20055;-89
2022/06/09 01:53:10;;;;;;;9.68;7.35;;;;;;;14.37;100.00;99798.69;6113899;29;20040;-89
2022/06/09 01:56:19;;;;;;;8.82;6.75;;;;;;;14.39;100.00;99799.34;6113393;29;20114;-90
2022/06/09 01:59:24;;;;;;;9.20;6.15;;;;;;;14.38;100.00;99795.13;6106785;29;20809;-89
2022/06/09 02:02:37;;;;;;;9.60;7.07;;;;;;;14.41;100.00;99791.38;6153414;28;20059;-89
2022/06/09 02:05:44;;;;;;;7.53;6.03;;;;;;;14.40;100.00;99789.75;6161911;28;20051;-89
2022/06/09 02:08:47;;;;;;;12.90;7.90;;;;;;;14.37;100.00;99793.50;6215146;28;20516;-89
2022/06/09 02:11:53;;;;;;;12.80;7.65;;;;;;;14.35;100.00;99797.22;6236626;28;20048;-88
2022/06/09 02:14:58;;;;;;;13.02;9.38;;;;;;;14.37;100.00;99796.09;6236913;28;20187;-89
2022/06/09 02:18:15;;;;;;;15.48;10.77;;;;;;;14.39;100.00;99795.94;6237695;28;20046;-89
2022/06/09 02:21:32;;;;;;;13.15;9.55;;;;;;;14.40;100.00;99795.75;6238166;28;20054;-88
2022/06/09 02:24:34;;;;;;;13.13;9.07;;;;;;;14.40;100.00;99797.56;6244818;28;20421;-88
2022/06/09 02:27:36;;;;;;;13.82;9.15;;;;;;;14.41;100.00;99800.00;6240485;28;20058;-89
2022/06/09 02:30:39;;;;;;;12.75;9.98;;;;;;;14.38;100.00;99802.09;6248221;28;20048;-89
2022/06/09 02:33:52;;;;;;;13.15;9.60;;;;;;;14.38;100.00;99802.09;6238756;28;20049;-89
2022/06/09 02:36:54;;;;;;;19.00;11.63;;;;;;;14.35;100.00;99811.06;6237434;28;20434;-89
2022/06/09 02:39:57;;;;;;;15.35;10.55;;;;;;;14.36;100.00;99806.66;6237082;28;20403;-89
2022/06/09 02:43:00;;;;;;;16.45;10.32;;;;;;;14.35;100.00;99813.66;6251445;28;20033;-89
2022/06/09 02:46:04;;;;;;;20.17;12.32;;;;;;;14.40;100.00;99816.59;6259663;28;20044;-88
2022/06/09 02:49:06;;;;;;;16.83;11.55;;;;;;;14.38;100.00;99817.72;6243615;28;20124;-89
2022/06/09 02:52:08;;;;;;;18.27;12.40;;;;;;;14.37;100.00;99810.91;6233272;28;20434;-89
2022/06/09 02:55:12;;;;;;;18.80;12.60;;;;;;;14.42;100.00;99819.03;6260136;28;20733;-89
2022/06/09 02:58:15;;;;;;;20.35;13.77;;;;;;;14.39;100.00;99827.19;6237743;28;20041;-89
2022/06/09 03:01:17;;;;;;;20.77;13.02;;;;;;;14.38;100.00;99823.78;6247173;28;20375;-88
2022/06/09 03:04:19;;;;;;;19.73;12.48;;;;;;;14.39;100.00;99824.56;6241859;28;20038;-89
2022/06/09 03:07:24;;;;;;;20.27;13.45;;;;;;;14.35;100.00;99831.88;6232340;28;20045;-89
2022/06/09 03:10:26;;;;;;;22.95;14.95;;;;;;;14.38;100.00;99830.75;6231009;28;20120;-89
2022/06/09 03:13:27;;;;;;;18.35;13.30;;;;;;;14.42;100.00;99838.06;6240501;28;20061;-88
2022/06/09 03:16:30;;;;;;;22.02;14.07;;;;;;;14.40;100.00;99842.63;6252455;28;20047;-89
2022/06/09 03:19:33;;;;;;;20.33;13.68;;;;;;;14.42;100.00;99843.28;6255548;28;20697;-89
2022/06/09 03:22:34;;;;;;;18.42;12.85;;;;;;;14.41;100.00;99841.66;6219548;28;20045;-89
2022/06/09 03:25:37;;;;;;;22.33;14.13;;;;;;;14.45;100.00;99842.13;6242040;28;20060;-89
2022/06/09 03:28:40;;;;;;;23.52;14.57;;;;;;;14.48;100.00;99849.63;6258183;28;20029;-89
2022/06/09 03:31:42;;;;;;;19.73;14.32;;;;;;;14.55;100.00;99852.44;6242012;28;20127;-88
2022/06/09 03:34:44;;;;;;;18.75;12.80;;;;;;;14.59;100.00;99853.72;6241890;28;20410;-89
2022/06/09 03:37:46;;;;;;;21.65;14.20;;;;;;;14.57;100.00;99858.28;6244164;28;20041;-88
2022/06/09 03:40:48;;;;;;;20.88;15.35;;;;;;;14.58;100.00;99860.75;6242646;28;20963;-89
2022/06/09 03:43:50;;;;;;;18.52;14.40;;;;;;;14.59;100.00;99851.13;6240114;28;20038;-88
2022/06/09 03:46:51;;;;;;;17.38;12.45;;;;;;;14.60;100.00;99863.16;6227257;28;20056;-89
2022/06/09 03:49:54;;;;;;;20.45;15.45;;;;;;;14.60;100.00;99863.97;6230189;28;20037;-89
2022/06/09 03:52:55;;;;;;;21.95;13.27;;;;;;;14.65;100.00;99868.69;6240114;28;20393;-89
2022/06/09 03:55:58;;;;;;;23.08;13.05;;;;;;;14.70;100.00;99866.41;6247616;28;20049;-89
2022/06/09 03:59:00;;;;;;;17.33;12.07;;;;;;;14.75;100.00;99865.91;6253564;28;20029;-88
2022/06/09 04:02:02;;;;;;;15.95;12.40;;;;;;;14.80;100.00;99861.03;6247520;28;20049;-89
2022/06/09 04:05:05;;;;;;;16.25;12.77;;;;;;;14.86;100.00;99857.78;6235325;28;20071;-88
2022/06/09 04:08:11;;;;;;;18.13;13.07;;;;;;;14.83;100.00;99871.94;6242791;28;20140;-89
2022/06/09 04:11:13;;;;;;;18.58;12.43;;;;;;;14.79;100.00;99869.84;6234695;28;20049;-88
2022/06/09 04:14:14;;;;;;;20.73;13.45;;;;;;;14.79;100.00;99867.22;6240361;28;20040;-88
2022/06/09 04:17:17;;;;;;;20.33;12.27;;;;;;;14.84;100.00;99873.56;6234893;28;20052;-88
2022/06/09 04:20:23;;;;;;;21.25;12.75;;;;;;;14.89;100.00;99878.28;6233169;28;20052;-88
2022/06/09 04:23:27;;;;;;;18.92;12.05;;;;;;;14.95;100.00;99880.22;6230672;28;20038;-88
2022/06/09 04:26:32;;;;;;;19.85;13.98;;;;;;;15.09;100.00;99889.16;6239847;28;20053;-89
2022/06/09 04:29:34;;;;;;;18.35;12.77;;;;;;;15.01;100.00;99894.41;6246348;28;20414;-89
2022/06/09 04:32:37;;;;;;;19.90;12.45;;;;;;;15.10;100.00;99892.59;6240628;28;20621;-89
2022/06/09 04:35:38;;;;;;;21.08;12.80;;;;;;;15.10;100.00;99898.59;6237994;28;20494;-89
2022/06/09 04:38:41;;;;;;;19.40;13.52;;;;;;;15.17;100.00;99896.97;6235850;28;20049;-89
2022/06/09 04:41:43;;;;;;;19.42;12.93;;;;;;;15.27;100.00;99900.19;6238926;28;20041;-89
2022/06/09 04:44:45;;;;;;;19.42;12.80;;;;;;;15.38;100.00;99906.88;6252691;28;20040;-88
2022/06/09 04:47:47;;;;;;;19.65;12.45;;;;;;;15.48;100.00;99907.47;6226807;28;20045;-89
2022/06/09 04:50:49;;;;;;;20.30;13.65;;;;;;;15.43;100.00;99908.97;6249864;28;20052;-89
2022/06/09 04:53:50;;;;;;;21.25;12.30;;;;;;;15.56;100.00;99909.25;6241475;28;20037;-89
2022/06/09 04:56:52;;;;;;;21.25;13.25;;;;;;;15.52;100.00;99911.38;6237375;28;20148;-89
2022/06/09 04:59:55;;;;;;;18.98;13.00;;;;;;;15.49;100.00;99918.72;6234941;28;20037;-89
2022/06/09 05:02:59;;;;;;;17.83;12.02;;;;;;;15.56;100.00;99924.09;6242973;28;20522;-88
2022/06/09 05:06:02;;;;;;;21.65;11.75;;;;;;;15.57;100.00;99921.28;6250627;28;20052;-89
2022/06/09 05:09:05;;;;;;;20.60;12.65;;;;;;;15.60;100.00;99925.38;6228915;28;20452;-88
2022/06/09 05:12:07;;;;;;;18.92;12.18;;;;;;;15.60;100.00;99927.97;6221916;28;20039;-89
2022/06/09 05:15:15;;;;;;;22.10;12.52;;;;;;;15.55;100.00;99936.28;6227998;28;20513;-89
2022/06/09 05:18:19;;;;;;;18.77;12.65;;;;;;;15.64;100.00;99950.16;6251933;28;20044;-89
2022/06/09 05:21:21;;;;;;;17.75;12.30;;;;;;;15.64;100.00;99950.94;6250482;28;20188;-88
2022/06/09 05:24:23;;;;;;;21.23;12.18;;;;;;;15.53;100.00;99959.16;6222897;28;20046;-89
2022/06/09 05:27:26;;;;;;;28.27;14.07;;;;;;;15.58;100.00;99958.66;6224982;28;20075;-89
2022/06/09 05:30:28;;;;;;;18.23;12.60;;;;;;;15.50;100.00;99968.13;6242572;28;20060;-88
2022/06/09 05:33:30;;;;;;;22.55;14.15;;;;;;;15.66;100.00;99967.25;6226376;28;20034;-89
2022/06/09 05:36:32;;;;;;;22.42;13.48;;;;;;;15.72;100.00;99968.41;6217175;28;20042;-88
2022/06/09 05:46:16;;;;;;;22.10;13.10;;;;;;;15.78;100.00;99982.59;6230798;28;19932;-88
2022/06/09 05:49:18;;;;;;;21.08;13.25;;;;;;;15.77;100.00;99994.81;6236805;28;20133;-89
2022/06/09 05:52:24;;;;;;;24.80;14.98;;;;;;;15.83;100.00;99994.16;6241027;28;20042;-89
2022/06/09 05:55:27;;;;;;;24.85;13.95;;;;;;;15.85;100.00;100004.41;6252068;28;20049;-89
2022/06/09 05:58:29;;;;;;;22.65;13.25;;;;;;;15.97;100.00;100007.47;6256947;28;20139;-89
2022/06/09 06:01:30;;;;;;;21.90;12.90;;;;;;;15.95;100.00;100007.66;6262330;28;20203;-89
2022/06/09 06:04:32;;;;;;;18.42;12.45;;;;;;;15.99;100.00;100023.78;6245465;28;20057;-90
2022/06/09 06:07:34;;;;;;;20.55;12.05;;;;;;;16.04;100.00;100024.09;6221325;28;20102;-89
2022/06/09 06:10:36;;;;;;;15.57;10.63;;;;;;;16.14;100.00;100027.31;6236704;28;20049;-89
2022/06/09 06:13:38;;;;;;;19.75;10.52;;;;;;;16.16;100.00;100033.19;6235041;28;20123;-89
2022/06/09 06:16:40;;;;;;;14.50;9.38;;;;;;;16.24;100.00;100038.38;6250894;28;20090;-89
2022/06/09 06:19:44;;;;;;;13.32;9.50;;;;;;;16.21;100.00;100036.09;6262059;28;20049;-89
2022/06/09 06:22:46;;;;;;;17.05;9.13;;;;;;;16.32;100.00;100040.97;6243544;28;20045;-89
2022/06/09 06:25:48;;;;;;;14.25;9.60;;;;;;;16.50;100.00;100050.34;6248988;28;20044;-89
2022/06/09 06:28:50;;;;;;;11.82;8.82;;;;;;;16.65;100.00;100048.63;6251622;28;20116;-89
2022/06/09 06:31:53;;;;;;;16.25;9.82;;;;;;;16.97;100.00;100052.03;6244543;28;20215;-89
2022/06/09 06:34:55;;;;;;;11.30;8.73;;;;;;;17.31;100.00;100066.47;6257960;28;20049;-89
2022/06/09 06:37:57;;;;;;;13.48;8.70;;;;;;;17.52;100.00;100056.16;6245658;28;20037;-88
2022/06/09 06:40:59;;;;;;;11.43;7.75;;;;;;;17.71;100.00;100046.97;6232717;28;20049;-88
2022/06/09 06:44:01;;;;;;;14.80;8.75;;;;;;;17.90;100.00;100065.81;6228977;28;20030;-88
2022/06/09 06:47:04;;;;;;;10.27;7.65;;;;;;;17.99;100.00;100076.00;6236795;28;20094;-88
2022/06/09 06:50:07;;;;;;;11.45;8.10;;;;;;;17.98;100.00;100079.59;6235897;28;20063;-88
2022/06/09 06:53:12;;;;;;;10.32;7.72;;;;;;;17.83;100.00;100089.25;6244955;28;20049;-88
2022/06/09 06:56:14;;;;;;;11.65;8.40;;;;;;;17.76;100.00;100091.78;6231097;28;20050;-88
2022/06/09 06:59:16;;;;;;;13.80;8.57;;;;;;;17.73;100.00;100099.97;6253497;28;20072;-88
2022/06/09 07:02:24;;;;;;;16.35;9.90;;;;;;;17.62;100.00;100098.59;6259795;28;20052;-88
2022/06/09 07:05:46;;;;;;;12.07;9.45;;;;;;;17.30;100.00;100101.50;6224449;28;20423;-88
2022/06/09 07:08:48;;;;;;;14.20;9.98;;;;;;;17.06;100.00;100118.97;6252629;28;20543;-89
2022/06/09 07:11:50;;;;;;;17.35;9.30;;;;;;;16.94;100.00;100107.28;6228164;28;20048;-87
2022/06/09 07:14:52;;;;;;;13.25;8.30;;;;;;;17.01;100.00;100110.84;6238621;28;20137;-88
2022/06/09 07:17:54;;;;;;;13.30;9.65;;;;;;;16.95;100.00;100125.41;6251529;28;20041;-88
2022/06/09 07:20:58;;;;;;;13.88;9.50;;;;;;;16.88;100.00;100129.72;6252267;28;20128;-88
2022/06/09 07:24:00;;;;;;;15.85;8.15;;;;;;;16.85;100.00;100135.28;6223303;28;20391;-87
2022/06/09 07:27:03;;;;;;;12.68;9.05;;;;;;;16.94;100.00;100136.03;6229854;28;20101;-88
2022/06/09 07:30:06;;;;;;;11.40;8.77;;;;;;;17.15;100.00;100138.06;6232320;28;20042;-88
2022/06/09 07:33:08;;;;;;;15.68;9.18;;;;;;;17.47;100.00;100138.81;6228623;28;20082;-88
2022/06/09 07:36:17;;;;;;;13.60;9.55;;;;;;;17.70;100.00;100144.03;6246230;28;20090;-88
2022/06/09 07:39:19;;;;;;;14.70;10.43;;;;;;;18.08;100.00;100153.47;6234983;28;20044;-88
2022/06/09 07:42:21;;;;;;;12.88;9.50;;;;;;;18.39;100.00;100154.34;6254492;28;20114;-88
2022/06/09 07:45:23;;;;;;;17.52;10.15;;;;;;;18.58;100.00;100151.13;6233869;28;20388;-88
2022/06/09 07:48:26;;;;;;;16.88;9.90;;;;;;;18.92;100.00;100161.06;6236279;28;20499;-88
2022/06/09 07:51:48;;;;;;;17.42;10.15;;;;;;;19.23;99.82;100160.00;6246955;28;20490;-88
2022/06/09 07:54:50;;;;;;;13.82;9.50;;;;;;;19.24;97.53;100168.66;6230107;28;20433;-88
2022/06/09 07:57:59;;;;;;;11.82;8.85;;;;;;;19.18;98.25;100159.75;6226259;28;20427;-88
2022/06/09 08:01:00;;;;;;;13.23;9.20;;;;;;;19.04;100.00;100174.50;6219696;28;20487;-87
2022/06/09 08:04:03;;;;;;;10.02;7.72;;;;;;;18.90;100.00;100178.78;6233345;28;20061;-88
2022/06/09 08:07:06;;;;;;;12.60;7.18;;;;;;;18.55;100.00;100182.16;6216126;28;20452;-88
2022/06/09 08:10:23;;;;;;;10.15;6.55;;;;;;;18.23;100.00;100186.75;6224283;28;20770;-87
2022/06/09 08:13:25;;;;;;;11.88;6.95;;;;;;;17.99;100.00;100179.97;6219028;28;20385;-87
2022/06/09 08:16:28;;;;;;;10.40;7.65;;;;;;;17.73;100.00;100181.13;6218645;28;20038;-87
2022/06/09 08:19:30;;;;;;;11.43;7.10;;;;;;;17.58;100.00;100188.91;6218199;28;20049;-88
2022/06/09 08:22:33;;;;;;;13.32;8.05;;;;;;;17.77;100.00;100184.22;6222124;28;21125;-87
2022/06/09 08:25:37;;;;;;;10.60;8.45;;;;;;;18.12;100.00;100190.63;6214900;28;20042;-88
2022/06/09 08:28:39;;;;;;;11.68;8.25;;;;;;;18.51;100.00;100185.16;6221540;28;20782;-89
2022/06/09 08:31:43;;;;;;;15.10;8.77;;;;;;;18.45;100.00;100191.09;6243896;28;20511;-88
2022/06/09 08:34:45;;;;;;;12.27;8.05;;;;;;;18.39;100.00;100196.25;6243312;28;20033;-88
2022/06/09 08:37:48;;;;;;;11.50;7.80;;;;;;;18.79;100.00;100191.56;6231682;28;20672;-87
2022/06/09 08:41:17;;;;;;;9.52;7.00;;;;;;;19.28;97.53;100194.34;6238568;28;20049;-87
2022/06/09 08:44:53;;;;;;;10.98;6.80;;;;;;;19.37;96.23;100206.34;6250036;28;20563;-89
2022/06/09 08:47:59;;;;;;;12.07;7.38;;;;;;;19.21;98.94;100205.78;6255077;28;20071;-89
2022/06/09 08:51:10;;;;;;;8.98;7.05;;;;;;;19.30;98.91;100223.03;6250599;28;20041;-89
2022/06/09 08:54:18;;;;;;;16.77;7.53;;;;;;;19.46;96.32;100222.81;6257105;28;20036;-92
2022/06/09 08:57:32;;;;;;;8.98;6.57;;;;;;;19.71;96.55;100225.09;6238979;28;20040;-89
2022/06/09 09:00:39;;;;;;;11.40;7.80;;;;;;;19.75;95.13;100224.53;6232074;28;20041;-90
2022/06/09 09:03:52;;;;;;;9.90;7.70;;;;;;;19.76;94.80;100226.13;6235439;28;20049;-91
2022/06/09 09:07:01;;;;;;;11.57;8.25;;;;;;;19.87;95.34;100235.31;6241272;28;20048;-89
2022/06/09 09:10:19;;;;;;;9.02;6.85;;;;;;;19.66;94.10;100233.50;6222737;28;20038;-89
2022/06/09 09:13:31;;;;;;;10.80;6.97;;;;;;;19.44;96.14;100237.91;6236129;28;20037;-90
2022/06/09 09:16:35;;;;;;;10.35;7.55;;;;;;;19.35;97.32;100249.53;6232089;28;20075;-93
2022/06/09 09:19:56;;;;;;;11.80;6.95;;;;;;;19.43;94.88;100238.94;6239357;28;20041;-89
2022/06/09 09:23:13;;;;;;;8.70;6.55;;;;;;;19.49;94.40;100243.41;6235662;28;20045;-91
2022/06/09 09:26:23;;;;;;;7.30;5.05;;;;;;;19.71;91.34;100252.16;6225869;28;20482;-88
2022/06/09 09:29:31;;;;;;;8.02;5.32;;;;;;;20.17;90.36;100254.38;6256366;28;20708;-89
2022/06/09 09:32:41;;;;;;;8.00;6.32;;;;;;;20.32;87.40;100253.44;6241597;28;20407;-87
2022/06/09 09:35:44;;;;;;;;;;;;;;;20.29;89.80;100261.72;6242546;28;20046;-89
2022/06/09 09:39:00;;;;;;;9.60;6.18;;;;;;;20.44;89.59;100262.44;6230160;28;20362;-90
2022/06/09 09:42:12;;;;;;;11.05;6.85;;;;;;;20.51;88.83;100259.84;6247114;28;20116;-89
2022/06/09 09:45:18;;;;;;;7.72;5.90;;;;;;;20.45;87.98;100253.56;6224961;28;20046;-87
2022/06/09 09:48:20;;;;;;;9.25;6.63;;;;;;;20.70;86.44;100264.47;6237153;28;20042;-88
2022/06/09 09:51:33;;;;;;;6.70;5.10;;;;;;;20.87;84.87;100272.84;6263370;28;20044;-87
2022/06/09 09:54:45;;;;;;;9.93;6.20;;;;;;;21.05;83.36;100270.50;6253088;28;20129;-87
2022/06/09 09:58:12;;;;;;;7.22;6.25;;;;;;;21.07;82.93;100275.56;6232171;28;20038;-87
2022/06/09 10:01:14;;;;;;;7.82;5.00;;;;;;;21.38;80.95;100276.88;6219831;28;20110;-88
2022/06/09 10:08:39;;;;;;;8.60;5.05;;;;;;;21.04;80.50;100270.69;6231874;28;20045;-87
2022/06/09 10:12:07;;;;;;;9.38;6.28;;;;;;;20.65;83.89;100280.00;6233528;28;20036;-88
2022/06/09 10:15:26;;;;;;;8.95;4.80;;;;;;;20.47;83.95;100280.47;6223331;28;20033;-87
2022/06/09 10:18:53;;;;;;;10.52;5.32;;;;;;;20.62;87.22;100273.31;6238480;28;20033;-87
2022/06/09 10:22:19;;;;;;;6.88;5.57;;;;;;;20.88;84.12;100281.56;6223806;28;20057;-90
2022/06/09 10:25:46;;;;;;;7.30;5.57;;;;;;;20.95;83.72;100285.03;6233948;28;20142;-87
2022/06/09 10:29:04;;;;;;;7.68;5.25;;;;;;;20.68;85.16;100287.50;6219535;28;20033;-90
2022/06/09 10:32:27;;;;;;;6.35;5.45;;;;;;;20.74;84.95;100285.91;6204953;28;20045;-88
2022/06/09 10:35:48;;;;;;;7.75;6.13;;;;;;;20.97;83.37;100289.09;6241004;28;20123;-88
2022/06/09 10:39:27;;;;;;;9.70;5.38;;;;;;;21.26;80.60;100297.72;6223657;28;20038;-88
2022/06/09 10:42:53;;;;;;;8.30;5.30;;;;;;;21.50;79.24;100306.94;6232558;28;20077;-89
2022/06/09 10:46:11;;;;;;;9.80;5.30;;;;;;;21.17;79.79;100306.81;6233388;28;20050;-88
2022/06/09 10:56:26;;;;;;;5.57;4.30;;;;;;;19.66;90.41;100342.97;6245762;28;20509;-89
2022/06/09 10:59:54;;;;;;;5.43;3.90;;;;;;;19.40;92.04;100341.66;6250631;28;20037;-89
2022/06/09 11:02:59;;;;;;;6.55;4.35;;;;;;;19.43;91.05;100351.81;6245323;28;20284;-90
2022/06/09 11:06:19;;;;;;;6.82;5.20;;;;;;;19.49;92.09;100343.19;6246451;28;20036;-88
2022/06/09 11:09:40;;;;;;;5.28;4.47;;;;;;;19.70;93.43;100357.38;6241882;28;20051;-89
2022/06/09 11:13:02;;;;;;;7.13;4.88;;;;;;;19.97;91.87;100356.69;6236599;28;20048;-87
2022/06/09 11:16:29;;;;;;;8.40;5.97;;;;;;;19.98;92.29;100357.50;6239763;28;20058;-89
2022/06/09 11:19:52;;;;;;;8.45;5.68;;;;;;;19.99;94.63;100351.22;6234340;28;20518;-88
2022/06/09 11:23:05;;;;;;;9.32;6.07;;;;;;;20.11;94.78;100355.00;6241548;28;20124;-91
2022/06/09 11:26:22;;;;;;;8.70;5.88;;;;;;;20.17;94.99;100356.88;6224899;28;20049;-89
2022/06/09 11:29:40;;;;;;;9.68;6.10;;;;;;;20.19;95.96;100354.03;6217039;28;20486;-88
2022/06/09 11:33:19;;;;;;;8.55;6.35;;;;;;;20.37;91.92;100356.22;6237187;28;20064;-90
2022/06/09 11:37:00;;;;;;;8.40;5.82;;;;;;;20.57;92.82;100365.13;6236499;28;20061;-90
2022/06/09 11:40:23;;;;;;;10.02;6.60;;;;;;;20.80;89.44;100349.09;6183199;28;20065;-88
2022/06/09 11:44:13;;;;;;;9.73;6.90;;;;;;;21.22;87.65;100352.59;6185472;28;20046;-90
2022/06/09 11:47:19;;;;;;;8.48;7.03;;;;;;;21.65;84.54;100355.00;6090915;29;20040;-90
2022/06/09 11:50:27;;;;;;;9.98;6.93;;;;;;;22.03;81.38;100349.19;6098121;29;20526;-89
2022/06/09 11:53:35;;;;;;;9.25;6.22;;;;;;;22.56;80.47;100348.47;6098212;29;20051;-89
2022/06/09 11:56:40;;;;;;;9.90;5.97;;;;;;;22.85;79.73;100344.53;6095194;29;20577;-89
2022/06/09 12:00:24;;;;;;;8.68;6.10;;;;;;;23.22;74.26;100356.25;6101565;29;20680;-89
2022/06/09 12:03:54;;;;;;;8.02;5.75;;;;;;;22.67;75.60;100360.22;6093180;29;20082;-90
2022/06/09 12:07:25;;;;;;;7.68;5.43;;;;;;;21.92;78.15;100368.25;6048603;29;20737;-88
2022/06/09 12:11:21;;;;;;;6.18;5.10;;;;;;;22.17;77.00;100354.50;5959838;29;20082;-90
2022/06/09 12:14:24;;;;;;;;;;;;;;;21.61;73.49;100351.13;5904632;30;20142;-90
2022/06/09 12:17:33;;;;;;;5.82;4.57;;;;;;;20.83;81.26;100353.97;5929565;29;19930;-89
2022/06/09 12:20:49;;;;;;;5.28;4.78;;;;;;;20.55;84.99;100361.88;5927775;29;20063;-91
2022/06/09 12:24:13;;;;;;;6.55;4.47;;;;;;;20.54;83.35;100359.41;5933359;29;20061;-91
2022/06/09 12:27:44;;;;;;;8.35;4.32;;;;;;;21.00;84.65;100366.84;5926772;29;20058;-90
2022/06/09 12:31:11;;;;;;;5.45;3.45;;;;;;;21.76;72.04;100363.34;5930920;29;20063;-90
2022/06/09 12:34:18;;;;;;;3.60;3.03;;;;;;;21.88;73.73;100364.38;5928794;29;20055;-91
2022/06/09 12:37:24;;;;;;;6.10;4.63;;;;;;;22.29;72.64;100372.19;5925385;29;20684;-92
2022/06/09 12:40:33;;;;;;;5.72;4.93;;;;;;;22.88;69.32;100372.34;5925681;29;20063;-91
2022/06/09 12:43:39;;;;;;;4.88;4.10;;;;;;;23.11;67.06;100380.69;5973056;29;20053;-89
2022/06/09 12:46:42;;;;;;;5.60;5.10;;;;;;;22.63;67.51;100377.47;6156934;28;20058;-88
2022/06/09 12:49:47;;;;;;;6.03;4.45;;;;;;;22.07;68.72;100386.53;6217950;28;20046;-89
2022/06/09 12:52:54;;;;;;;5.05;4.53;;;;;;;21.71;73.44;100392.91;6227525;28;20046;-90
2022/06/09 12:55:59;;;;;;;7.53;4.65;;;;;;;21.63;73.93;100387.81;6231056;28;20048;-89
2022/06/09 12:59:28;;;;;;;4.57;4.15;;;;;;;22.78;73.48;100385.97;6220464;28;20518;-88
2022/06/09 13:02:35;;;;;;;5.15;4.30;;;;;;;23.76;63.55;100393.88;6229586;28;20051;-87
2022/06/09 13:05:38;;;;;;;6.35;3.40;;;;;;;24.35;62.06;100397.16;6234190;28;20509;-89
2022/06/09 13:08:48;;;;;;;3.10;2.70;;;;;;;24.90;58.29;100405.28;6238823;28;20038;-88
2022/06/09 13:15:19;;;;;;;4.82;2.88;;;;;;;25.10;56.24;100412.22;6237750;28;19929;-88
2022/06/09 13:18:27;;;;;;;4.65;2.80;;;;;;;25.34;54.99;100405.25;6248553;28;20042;-90
2022/06/09 13:21:38;;;;;;;4.70;2.80;;;;;;;25.74;53.81;100413.53;6243258;28;20041;-90
2022/06/09 13:24:42;;;;;;;3.42;2.50;;;;;;;25.72;49.57;100425.41;6245096;28;20046;-90
2022/06/09 13:27:48;;;;;;;8.13;3.00;;;;;;;24.85;53.30;100422.84;6203416;28;20503;-88
2022/06/09 13:30:53;;;;;;;4.05;2.83;;;;;;;24.02;55.51;100411.44;6236553;28;20044;-88
2022/06/09 13:34:14;;;;;;;3.25;2.28;;;;;;;23.51;57.48;100419.38;6249104;28;20398;-89
2022/06/09 13:37:35;;;;;;;3.65;2.88;;;;;;;23.75;59.17;100416.03;6247983;28;20041;-88
2022/06/09 13:40:49;;;;;;;4.55;2.30;;;;;;;24.29;56.23;100405.94;6262050;28;20560;-88
2022/06/09 13:43:56;;;;;;;5.03;1.80;;;;;;;24.89;54.05;100426.66;6239447;28;20041;-92
2022/06/09 13:47:17;;;;;;;2.88;2.10;;;;;;;24.52;50.45;100423.94;6237160;28;20184;-88
2022/06/09 13:50:21;;;;;;;2.17;1.65;;;;;;;23.82;49.98;100426.56;6234659;28;20060;-88
2022/06/09 13:53:32;;;;;;;3.13;1.65;;;;;;;23.37;54.69;100416.75;6241971;28;20056;-88
2022/06/09 13:56:34;;;;;;;5.03;1.87;;;;;;;23.22;50.94;100421.47;6236732;28;20807;-89
2022/06/09 13:59:36;;;;;;;1.73;1.63;;;;;;;23.24;52.70;100418.63;6230017;28;20057;-89
2022/06/09 14:03:15;;;;;;;2.80;1.48;;;;;;;23.64;53.56;100428.03;6232821;28;20057;-89
2022/06/09 14:06:21;;;;;;;2.33;1.90;;;;;;;23.70;51.56;100438.78;6228441;28;20052;-88
2022/06/09 14:09:23;;;;;;;2.80;2.13;;;;;;;23.77;53.62;100439.59;6236936;28;20123;-88
2022/06/09 14:12:25;;;;;;;1.63;1.45;;;;;;;24.00;50.24;100450.50;6246354;28;20086;-89
2022/06/09 14:15:29;;;;;;;2.38;1.40;;;;;;;23.71;49.87;100438.59;6232894;28;20068;-88
2022/06/09 14:18:33;;;;;;;1.95;1.50;;;;;;;23.27;51.31;100439.34;6234664;28;20046;-89
2022/06/09 14:21:35;;;;;;;2.85;1.75;;;;;;;23.96;52.61;100453.78;6232712;28;20049;-88
2022/06/09 14:24:38;;;;;;;4.50;1.50;;;;;;;24.93;47.39;100454.34;6242242;28;20061;-90
2022/06/09 14:27:41;;;;;;;2.45;1.55;;;;;;;25.77;45.84;100452.84;6234732;28;20103;-89
2022/06/09 14:30:44;;;;;;;2.08;1.30;;;;;;;25.63;43.87;100458.53;6226714;28;20153;-88
2022/06/09 14:33:46;;;;;;;2.35;1.40;;;;;;;24.94;44.88;100474.50;6224448;28;20259;-89
2022/06/09 14:36:50;;;;;;;3.17;1.52;;;;;;;24.47;46.86;100477.50;6224367;28;20053;-89
2022/06/09 14:39:52;;;;;;;1.67;1.20;;;;;;;24.50;47.10;100477.09;6227406;28;20510;-88
2022/06/09 14:42:55;;;;;;;4.47;1.30;;;;;;;24.31;48.62;100469.25;6230795;28;20414;-90
2022/06/09 14:45:58;;;;;;;2.10;1.50;;;;;;;24.64;47.34;100471.69;6231453;28;20044;-89